createdAt,value
2018-11-27T00:00:34.358Z,33.70
2018-11-27T00:03:05.953Z,31.03
2018-11-27T00:05:36.149Z,30.37
2018-11-27T00:08:05.065Z,31.00
2018-11-27T00:10:34.856Z,29.87
2018-11-27T00:13:03.448Z,31.23
2018-11-27T00:15:31.909Z,30.87
2018-11-27T00:18:00.396Z,30.50
2018-11-27T00:20:29.600Z,30.67
2018-11-27T00:22:59.124Z,32.50
2018-11-27T00:25:27.803Z,30.73
2018-11-27T00:27:56.348Z,28.83
2018-11-27T00:30:24.848Z,28.90
2018-11-27T00:32:54.137Z,29.60
2018-11-27T00:35:22.636Z,29.97
2018-11-27T00:37:52.426Z,30.07
2018-11-27T00:40:21.916Z,29.50
2018-11-27T00:42:52.060Z,30.07
2018-11-27T00:45:21.231Z,29.30
2018-11-27T00:47:50.876Z,29.57
2018-11-27T00:50:20.504Z,29.23
2018-11-27T00:52:49.344Z,28.40
2018-11-27T00:55:18.624Z,29.47
2018-11-27T00:57:48.236Z,29.97
2018-11-27T01:00:19.631Z,27.40
2018-11-27T01:02:48.456Z,28.17
2018-11-27T01:05:18.395Z,28.47
2018-11-27T01:07:46.935Z,29.70
2018-11-27T01:10:18.216Z,27.70
2018-11-27T01:12:46.698Z,28.17
2018-11-27T01:15:15.601Z,29.27
2018-11-27T01:17:52.842Z,26.63
2018-11-27T01:20:22.058Z,27.80
2018-11-27T01:22:50.897Z,27.77
2018-11-27T01:25:19.399Z,28.47
2018-11-27T01:27:48.520Z,29.07
2018-11-27T01:30:20.144Z,30.73
2018-11-27T01:32:48.913Z,27.60
2018-11-27T01:35:18.465Z,28.87
2018-11-27T01:37:48.016Z,27.60
2018-11-27T01:40:21.601Z,28.20
2018-11-27T01:42:53.034Z,27.00
2018-11-27T01:45:22.030Z,27.73
2018-11-27T01:47:51.410Z,27.27
2018-11-27T01:50:20.652Z,27.97
2018-11-27T01:52:49.503Z,29.07
2018-11-27T01:55:19.275Z,26.50
2018-11-27T01:57:47.899Z,27.23
2018-11-27T02:00:22.015Z,25.83
2018-11-27T02:02:51.166Z,26.03
2018-11-27T02:05:20.117Z,27.13
2018-11-27T02:07:48.588Z,24.60
2018-11-27T02:10:17.450Z,25.00
2018-11-27T02:12:46.959Z,25.50
2018-11-27T02:15:19.224Z,25.87
2018-11-27T02:17:48.068Z,27.00
2018-11-27T02:20:16.576Z,25.87
2018-11-27T02:22:45.120Z,25.50
2018-11-27T02:25:30.123Z,25.47
2018-11-27T02:27:58.947Z,24.90
2018-11-27T02:30:28.412Z,25.47
2018-11-27T02:32:57.273Z,25.50
2018-11-27T02:35:26.420Z,25.03
2018-11-27T02:37:56.455Z,25.83
2018-11-27T02:40:25.024Z,23.73
2018-11-27T02:42:53.565Z,24.37
2018-11-27T02:45:24.164Z,25.30
2018-11-27T02:47:53.544Z,24.53
2018-11-27T02:50:23.052Z,24.10
2018-11-27T02:52:51.525Z,23.83
2018-11-27T02:55:21.909Z,25.27
2018-11-27T02:57:50.429Z,24.30
2018-11-27T03:00:22.078Z,23.90
2018-11-27T03:02:50.585Z,23.33
2018-11-27T03:05:21.588Z,23.03
2018-11-27T03:07:50.100Z,24.93
2018-11-27T03:10:18.576Z,24.00
2018-11-27T03:12:47.085Z,25.13
2018-11-27T03:15:16.869Z,23.80
2018-11-27T03:17:45.431Z,23.13
2018-11-27T03:20:14.837Z,23.83
2018-11-27T03:22:43.432Z,24.20
2018-11-27T03:25:14.963Z,25.50
2018-11-27T03:27:43.941Z,24.40
2018-11-27T03:30:14.283Z,24.07
2018-11-27T03:32:43.053Z,24.07
2018-11-27T03:35:14.424Z,23.50
2018-11-27T03:37:43.154Z,24.70
2018-11-27T03:40:15.845Z,24.43
2018-11-27T03:42:44.705Z,24.53
2018-11-27T03:45:14.846Z,23.13
2018-11-27T03:47:43.507Z,23.47
2018-11-27T03:50:16.788Z,23.97
2018-11-27T03:52:46.062Z,24.93
2018-11-27T03:55:14.589Z,22.70
2018-11-27T03:57:43.110Z,25.03
2018-11-27T04:00:16.767Z,24.93
2018-11-27T04:02:46.528Z,23.57
2018-11-27T04:05:15.365Z,24.53
2018-11-27T04:07:43.904Z,24.00
2018-11-27T04:10:13.652Z,24.10
2018-11-27T04:12:42.614Z,25.03
2018-11-27T04:15:11.812Z,24.23
2018-11-27T04:17:40.405Z,24.97
2018-11-27T04:20:10.302Z,25.70
2018-11-27T04:22:39.166Z,24.37
2018-11-27T04:25:11.027Z,25.03
2018-11-27T04:27:39.618Z,24.03
2018-11-27T04:30:11.364Z,23.23
2018-11-27T04:32:39.894Z,24.70
2018-11-27T04:35:09.576Z,23.63
2018-11-27T04:37:38.109Z,25.30
2018-11-27T04:40:11.021Z,25.77
2018-11-27T04:42:39.508Z,25.07
2018-11-27T04:45:11.930Z,23.40
2018-11-27T04:47:40.406Z,26.30
2018-11-27T04:50:10.336Z,24.40
2018-11-27T04:52:38.853Z,24.90
2018-11-27T04:55:09.041Z,25.50
2018-11-27T04:57:37.509Z,25.10
2018-11-27T05:00:10.236Z,24.03
2018-11-27T05:02:38.718Z,24.47
2018-11-27T05:05:08.148Z,25.63
2018-11-27T05:07:36.615Z,25.07
2018-11-27T05:10:21.987Z,23.07
2018-11-27T05:12:50.763Z,24.23
2018-11-27T05:15:20.803Z,24.40
2018-11-27T05:17:50.353Z,24.27
2018-11-27T05:20:19.251Z,23.67
2018-11-27T05:22:48.092Z,25.03
2018-11-27T05:25:18.779Z,24.93
2018-11-27T05:27:51.228Z,22.77
2018-11-27T05:30:20.731Z,24.50
2018-11-27T05:32:49.212Z,23.60
2018-11-27T05:35:28.187Z,24.67
2018-11-27T05:37:56.837Z,24.77
2018-11-27T05:40:25.844Z,23.53
2018-11-27T05:43:01.488Z,23.07
2018-11-27T05:45:30.011Z,23.37
2018-11-27T05:47:58.544Z,25.33
2018-11-27T05:50:27.125Z,22.63
2018-11-27T05:52:55.700Z,22.80
2018-11-27T05:55:24.184Z,22.30
2018-11-27T05:57:53.860Z,23.23
2018-11-27T06:00:24.367Z,20.77
2018-11-27T06:02:53.935Z,19.90
2018-11-27T06:05:22.960Z,19.50
2018-11-27T06:07:51.499Z,19.97
2018-11-27T06:10:21.465Z,21.63
2018-11-27T06:12:49.975Z,21.67
2018-11-27T06:15:19.703Z,21.00
2018-11-27T06:17:50.359Z,19.50
2018-11-27T06:20:20.137Z,20.80
2018-11-27T06:22:48.636Z,21.43
2018-11-27T06:25:18.448Z,20.30
2018-11-27T06:27:48.578Z,20.67
2018-11-27T06:30:19.210Z,19.97
2018-11-27T06:32:47.712Z,20.77
2018-11-27T06:35:20.513Z,21.20
2018-11-27T06:37:48.967Z,20.40
2018-11-27T06:40:19.028Z,21.87
2018-11-27T06:42:47.511Z,21.27
2018-11-27T06:45:17.943Z,21.50
2018-11-27T06:47:47.910Z,21.00
2018-11-27T06:50:16.872Z,21.87
2018-11-27T06:52:45.362Z,21.23
2018-11-27T06:55:15.972Z,21.27
2018-11-27T06:57:44.478Z,20.73
2018-11-27T07:00:18.008Z,22.27
2018-11-27T07:02:47.053Z,22.20
2018-11-27T07:05:15.725Z,22.70
2018-11-27T07:07:44.312Z,21.97
2018-11-27T07:10:28.421Z,21.47
2018-11-27T07:13:32.956Z,22.03
2018-11-27T07:16:01.440Z,21.10
2018-11-27T07:18:29.908Z,22.07
2018-11-27T07:20:58.401Z,21.10
2018-11-27T07:23:26.868Z,22.67
2018-11-27T07:25:55.351Z,21.73
2018-11-27T07:28:23.812Z,22.37
2018-11-27T07:30:52.331Z,23.87
2018-11-27T07:33:20.828Z,22.20
2018-11-27T07:35:49.342Z,23.73
2018-11-27T07:38:17.800Z,23.63
2018-11-27T07:40:46.284Z,22.73
2018-11-27T07:43:14.802Z,21.90
2018-11-27T07:45:43.324Z,23.30
2018-11-27T07:48:11.825Z,21.97
2018-11-27T07:50:40.342Z,22.40
2018-11-27T07:53:08.868Z,22.27
2018-11-27T07:55:37.392Z,21.87
2018-11-27T07:58:06.866Z,23.37
2018-11-27T08:00:36.535Z,23.13
2018-11-27T08:03:05.896Z,23.30
2018-11-27T08:05:37.458Z,22.97
2018-11-27T08:08:07.333Z,22.00
2018-11-27T08:10:35.820Z,22.67
2018-11-27T08:13:04.678Z,22.77
2018-11-27T08:15:33.169Z,21.70
2018-11-27T08:18:01.656Z,21.70
2018-11-27T08:20:32.131Z,22.10
2018-11-27T08:23:01.095Z,22.77
2018-11-27T08:25:29.609Z,22.20
2018-11-27T08:27:58.456Z,21.57
2018-11-27T08:30:26.988Z,20.80
2018-11-27T08:32:56.062Z,21.67
2018-11-27T08:35:26.928Z,22.03
2018-11-27T08:37:56.602Z,22.30
2018-11-27T08:40:26.671Z,21.43
2018-11-27T08:42:55.144Z,21.67
2018-11-27T08:45:24.993Z,22.77
2018-11-27T08:47:55.292Z,21.53
2018-11-27T08:50:25.652Z,20.63
2018-11-27T08:52:58.311Z,21.47
2018-11-27T08:55:28.528Z,22.00
2018-11-27T08:57:57.193Z,21.43
2018-11-27T09:00:27.157Z,22.93
2018-11-27T09:02:55.623Z,20.97
2018-11-27T09:05:24.180Z,21.70
2018-11-27T09:07:52.665Z,22.67
2018-11-27T09:10:25.116Z,21.77
2018-11-27T09:12:53.609Z,21.63
2018-11-27T09:15:22.872Z,21.50
2018-11-27T09:18:07.436Z,20.77
2018-11-27T09:20:36.956Z,22.23
2018-11-27T09:23:06.139Z,21.23
2018-11-27T09:25:35.043Z,20.83
2018-11-27T09:28:03.557Z,21.83
2018-11-27T09:30:32.080Z,19.47
2018-11-27T09:33:00.629Z,19.67
2018-11-27T09:35:29.110Z,20.30
2018-11-27T09:37:57.600Z,21.27
2018-11-27T09:40:26.081Z,20.70
2018-11-27T09:42:54.616Z,21.43
2018-11-27T09:45:24.349Z,20.93
2018-11-27T09:47:55.741Z,21.33
2018-11-27T09:50:24.583Z,20.50
2018-11-27T09:52:53.548Z,20.57
2018-11-27T09:55:25.234Z,20.23
2018-11-27T09:57:58.815Z,20.33
2018-11-27T10:00:31.075Z,21.07
2018-11-27T10:03:01.453Z,20.23
2018-11-27T10:05:29.915Z,19.10
2018-11-27T10:07:58.458Z,21.27
2018-11-27T10:10:27.983Z,21.40
2018-11-27T10:12:56.483Z,20.10
2018-11-27T10:15:26.915Z,19.07
2018-11-27T10:17:57.336Z,19.13
2018-11-27T10:20:27.305Z,20.77
2018-11-27T10:22:55.784Z,21.03
2018-11-27T10:25:24.284Z,20.83
2018-11-27T10:27:52.772Z,20.97
2018-11-27T10:30:23.316Z,19.50
2018-11-27T10:32:53.231Z,20.67
2018-11-27T10:35:28.112Z,19.70
2018-11-27T10:37:56.628Z,19.27
2018-11-27T10:40:25.819Z,19.43
2018-11-27T10:42:54.363Z,20.80
2018-11-27T10:45:24.619Z,18.73
2018-11-27T10:47:56.458Z,20.93
2018-11-27T10:50:25.284Z,20.20
2018-11-27T10:52:54.802Z,19.17
2018-11-27T10:55:24.408Z,18.37
2018-11-27T10:57:52.916Z,20.00
2018-11-27T11:00:29.578Z,21.20
2018-11-27T11:03:03.717Z,20.37
2018-11-27T11:05:34.273Z,20.03
2018-11-27T11:08:02.821Z,21.07
2018-11-27T11:10:31.756Z,20.77
2018-11-27T11:13:00.252Z,21.20
2018-11-27T11:15:28.773Z,18.87
2018-11-27T11:17:57.281Z,19.33
2018-11-27T11:20:25.892Z,20.50
2018-11-27T11:22:54.440Z,19.57
2018-11-27T11:25:24.281Z,20.93
2018-11-27T11:27:55.876Z,19.57
2018-11-27T11:30:24.744Z,22.53
2018-11-27T11:32:53.644Z,19.90
2018-11-27T11:35:22.141Z,20.17
2018-11-27T11:37:50.870Z,20.37
2018-11-27T11:40:20.465Z,19.10
2018-11-27T11:42:50.430Z,19.03
2018-11-27T11:45:18.904Z,19.87
2018-11-27T11:47:47.412Z,19.57
2018-11-27T11:50:20.961Z,19.90
2018-11-27T11:52:50.926Z,17.80
2018-11-27T11:55:20.006Z,18.33
2018-11-27T11:57:48.538Z,16.37
2018-11-27T12:00:21.708Z,18.33
2018-11-27T12:02:50.248Z,17.80
2018-11-27T12:05:18.772Z,18.53
2018-11-27T12:07:47.240Z,18.90
2018-11-27T12:10:16.488Z,18.37
2018-11-27T12:12:46.072Z,19.87
2018-11-27T12:15:15.453Z,18.33
2018-11-27T12:17:44.481Z,18.63
2018-11-27T12:20:13.975Z,18.60
2018-11-27T12:22:43.687Z,19.20
2018-11-27T12:25:13.120Z,19.13
2018-11-27T12:27:41.652Z,19.47
2018-11-27T12:30:13.050Z,18.20
2018-11-27T12:32:41.528Z,19.33
2018-11-27T12:35:10.983Z,18.77
2018-11-27T12:37:39.862Z,18.07
2018-11-27T12:40:13.597Z,17.23
2018-11-27T12:42:42.480Z,17.93
2018-11-27T12:45:12.269Z,17.43
2018-11-27T12:47:40.874Z,18.57
2018-11-27T12:50:13.352Z,17.23
2018-11-27T12:52:41.836Z,16.97
2018-11-27T12:55:18.420Z,17.50
2018-11-27T12:57:46.923Z,16.43
2018-11-27T13:00:18.577Z,16.43
2018-11-27T13:02:47.424Z,16.33
2018-11-27T13:05:17.296Z,16.43
2018-11-27T13:07:45.776Z,16.43
2018-11-27T13:10:15.291Z,15.73
2018-11-27T13:12:44.319Z,15.73
2018-11-27T13:15:15.834Z,16.50
2018-11-27T13:17:44.412Z,16.63
2018-11-27T13:20:14.945Z,16.33
2018-11-27T13:22:43.777Z,17.20
2018-11-27T13:25:28.436Z,16.17
2018-11-27T13:27:57.280Z,15.90
2018-11-27T13:30:32.796Z,15.90
2018-11-27T13:33:04.716Z,14.97
2018-11-27T13:35:33.228Z,15.73
2018-11-27T13:38:01.690Z,16.37
2018-11-27T13:40:30.199Z,15.37
2018-11-27T13:42:58.748Z,16.20
2018-11-27T13:45:27.291Z,17.03
2018-11-27T13:47:56.115Z,15.67
2018-11-27T13:50:24.640Z,14.90
2018-11-27T13:52:53.132Z,15.80
2018-11-27T13:55:22.413Z,15.27
2018-11-27T13:57:50.887Z,16.00
2018-11-27T14:00:20.069Z,14.03
2018-11-27T14:02:50.095Z,15.63
2018-11-27T14:05:20.058Z,15.87
2018-11-27T14:07:48.532Z,15.33
2018-11-27T14:10:17.067Z,15.83
2018-11-27T14:13:48.189Z,15.40
2018-11-27T14:16:16.684Z,15.17
2018-11-27T14:18:45.155Z,15.73
2018-11-27T14:21:13.639Z,15.30
2018-11-27T14:23:42.123Z,15.03
2018-11-27T14:26:10.612Z,16.00
2018-11-27T14:28:39.095Z,16.57
2018-11-27T14:31:07.605Z,15.93
2018-11-27T14:33:36.208Z,16.53
2018-11-27T14:36:04.881Z,16.27
2018-11-27T14:38:33.392Z,15.60
2018-11-27T14:41:01.941Z,15.90
2018-11-27T14:43:30.433Z,17.27
2018-11-27T14:45:58.961Z,17.17
2018-11-27T14:48:27.468Z,16.30
2018-11-27T14:50:56.019Z,15.30
2018-11-27T14:53:24.491Z,16.63
2018-11-27T14:55:53.367Z,16.67
2018-11-27T14:58:21.854Z,18.40
2018-11-27T15:00:50.400Z,15.30
2018-11-27T15:03:18.932Z,18.80
2018-11-27T15:05:47.461Z,18.17
2018-11-27T15:08:16.546Z,16.40
2018-11-27T15:10:45.112Z,16.27
2018-11-27T15:13:44.323Z,17.00
2018-11-27T15:16:12.841Z,16.47
2018-11-27T15:18:41.773Z,16.33
2018-11-27T15:21:10.322Z,16.93
2018-11-27T15:23:39.087Z,17.27
2018-11-27T15:26:07.594Z,15.87
2018-11-27T15:28:36.136Z,17.50
2018-11-27T15:31:04.683Z,15.73
2018-11-27T15:33:33.367Z,16.43
2018-11-27T15:36:01.956Z,17.63
2018-11-27T15:38:30.706Z,16.93
2018-11-27T15:40:59.236Z,17.17
2018-11-27T15:43:27.814Z,16.90
2018-11-27T15:45:56.413Z,15.90
2018-11-27T15:48:24.996Z,17.07
2018-11-27T15:50:53.467Z,16.33
2018-11-27T15:53:22.016Z,16.30
2018-11-27T15:55:50.495Z,16.17
2018-11-27T15:58:18.992Z,16.20
2018-11-27T16:00:47.503Z,16.17
2018-11-27T16:03:15.997Z,16.47
2018-11-27T16:05:45.344Z,16.63
2018-11-27T16:08:14.865Z,15.10
2018-11-27T16:10:43.364Z,16.93
2018-11-27T16:13:11.888Z,16.00
2018-11-27T16:15:40.376Z,17.20
2018-11-27T16:18:08.904Z,15.73
2018-11-27T16:20:37.391Z,16.67
2018-11-27T16:23:06.408Z,17.27
2018-11-27T16:25:34.868Z,16.97
2018-11-27T16:28:03.348Z,17.47
2018-11-27T16:30:32.191Z,17.37
2018-11-27T16:33:00.665Z,17.03
2018-11-27T16:35:29.121Z,16.87
2018-11-27T16:37:59.660Z,18.03
2018-11-27T16:40:29.264Z,17.40
2018-11-27T16:42:57.744Z,17.83
2018-11-27T16:45:26.556Z,18.30
2018-11-27T16:47:55.053Z,19.23
2018-11-27T16:50:23.501Z,18.17
2018-11-27T16:52:52.510Z,17.63
2018-11-27T16:55:22.299Z,16.90
2018-11-27T16:57:50.828Z,16.97
2018-11-27T17:00:24.740Z,17.03
2018-11-27T17:02:54.225Z,16.67
2018-11-27T17:05:23.029Z,16.27
2018-11-27T17:07:51.510Z,16.80
2018-11-27T17:10:20.701Z,16.37
2018-11-27T17:12:50.555Z,17.57
2018-11-27T17:15:20.088Z,17.97
2018-11-27T17:17:48.668Z,16.53
2018-11-27T17:20:24.072Z,17.80
2018-11-27T17:22:53.152Z,16.90
2018-11-27T17:25:22.008Z,16.87
2018-11-27T17:27:51.025Z,17.17
2018-11-27T17:30:20.891Z,16.40
2018-11-27T17:32:49.427Z,16.40
2018-11-27T17:35:17.981Z,17.23
2018-11-27T17:37:46.462Z,16.57
2018-11-27T17:40:15.286Z,18.53
2018-11-27T17:42:43.892Z,18.03
2018-11-27T17:45:14.892Z,17.00
2018-11-27T17:47:44.399Z,16.03
2018-11-27T17:50:14.225Z,16.50
2018-11-27T17:52:43.204Z,16.80
2018-11-27T17:55:12.448Z,16.83
2018-11-27T17:57:41.108Z,15.23
2018-11-27T18:00:13.508Z,16.13
2018-11-27T18:02:42.451Z,15.50
2018-11-27T18:05:11.042Z,16.67
2018-11-27T18:07:40.038Z,16.10
2018-11-27T18:10:10.057Z,18.60
2018-11-27T18:12:40.366Z,17.37
2018-11-27T18:15:11.611Z,16.93
2018-11-27T18:17:40.198Z,17.03
2018-11-27T18:20:09.889Z,17.20
2018-11-27T18:22:38.427Z,17.20
2018-11-27T18:25:11.112Z,17.20
2018-11-27T18:27:39.865Z,19.70
2018-11-27T18:30:11.410Z,17.57
2018-11-27T18:32:40.240Z,18.17
2018-11-27T18:35:10.545Z,18.93
2018-11-27T18:37:39.055Z,18.50
2018-11-27T18:40:10.009Z,17.37
2018-11-27T18:42:38.909Z,16.70
2018-11-27T18:45:12.016Z,17.20
2018-11-27T18:47:46.508Z,18.13
2018-11-27T18:50:15.028Z,18.30
2018-11-27T18:52:43.738Z,17.20
2018-11-27T18:55:14.150Z,18.10
2018-11-27T18:57:43.559Z,18.73
2018-11-27T19:00:34.985Z,17.60
2018-11-27T19:03:06.836Z,16.87
2018-11-27T19:05:35.353Z,17.53
2018-11-27T19:08:03.828Z,19.10
2018-11-27T19:10:33.554Z,19.30
2018-11-27T19:13:02.224Z,19.00
2018-11-27T19:15:34.062Z,18.10
2018-11-27T19:18:04.617Z,18.93
2018-11-27T19:20:33.123Z,18.87
2018-11-27T19:23:01.636Z,19.27
2018-11-27T19:25:30.112Z,19.40
2018-11-27T19:27:58.573Z,18.93
2018-11-27T19:30:31.997Z,18.23
2018-11-27T19:32:55.549Z,19.50
2018-11-27T19:35:25.495Z,18.37
2018-11-27T19:37:52.826Z,20.40
2018-11-27T19:40:21.956Z,19.23
2018-11-27T19:42:50.392Z,19.20
2018-11-27T19:45:20.869Z,20.03
2018-11-27T19:47:49.759Z,17.67
2018-11-27T19:50:18.244Z,20.17
2018-11-27T19:52:47.947Z,18.67
2018-11-27T19:55:17.343Z,20.03
2018-11-27T19:57:45.848Z,21.00
2018-11-27T20:00:25.402Z,21.10
2018-11-27T20:02:54.124Z,20.50
2018-11-27T20:05:23.739Z,19.23
2018-11-27T20:07:52.588Z,20.73
2018-11-27T20:10:21.446Z,18.63
2018-11-27T20:12:50.072Z,21.00
2018-11-27T20:15:26.397Z,20.80
2018-11-27T20:17:55.408Z,19.53
2018-11-27T20:20:24.937Z,19.77
2018-11-27T20:22:54.421Z,21.43
2018-11-27T20:25:23.475Z,20.63
2018-11-27T20:27:52.535Z,19.63
2018-11-27T20:30:23.094Z,20.37
2018-11-27T20:32:53.928Z,18.93
2018-11-27T20:35:22.797Z,19.80
2018-11-27T20:37:52.437Z,20.10
2018-11-27T20:40:21.395Z,19.00
2018-11-27T20:42:49.932Z,20.30
2018-11-27T20:45:19.900Z,20.83
2018-11-27T20:47:51.729Z,18.50
2018-11-27T20:50:21.558Z,19.83
2018-11-27T20:52:50.070Z,19.50
2018-11-27T20:55:21.075Z,21.00
2018-11-27T20:57:51.865Z,20.00
2018-11-27T21:00:24.576Z,18.40
2018-11-27T21:02:57.284Z,20.10
2018-11-27T21:05:25.849Z,19.97
2018-11-27T21:07:55.541Z,19.73
2018-11-27T21:10:24.405Z,18.90
2018-11-27T21:12:52.885Z,18.60
2018-11-27T21:15:21.441Z,19.83
2018-11-27T21:17:49.912Z,19.73
2018-11-27T21:20:19.604Z,19.47
2018-11-27T21:22:47.418Z,19.83
2018-11-27T21:25:20.001Z,20.13
2018-11-27T21:27:51.182Z,18.40
2018-11-27T21:30:19.691Z,19.70
2018-11-27T21:32:48.156Z,19.43
2018-11-27T21:35:17.389Z,19.17
2018-11-27T21:37:46.185Z,17.47
2018-11-27T21:40:16.202Z,18.77
2018-11-27T21:42:44.717Z,17.93
2018-11-27T21:45:16.249Z,18.13
2018-11-27T21:47:44.920Z,17.53
2018-11-27T21:50:17.471Z,18.90
2018-11-27T21:52:46.276Z,19.20
2018-11-27T21:55:15.330Z,17.67
2018-11-27T21:57:44.408Z,17.57
2018-11-27T22:00:16.044Z,17.80
2018-11-27T22:02:44.732Z,17.83
2018-11-27T22:05:13.512Z,17.53
2018-11-27T22:07:42.875Z,18.23
2018-11-27T22:10:18.818Z,19.57
2018-11-27T22:12:48.403Z,18.53
2018-11-27T22:15:21.332Z,16.93
2018-11-27T22:17:50.245Z,18.30
2018-11-27T22:20:21.534Z,18.87
2018-11-27T22:22:47.640Z,19.07
2018-11-27T22:25:16.194Z,19.07
2018-11-27T22:27:44.728Z,17.27
2018-11-27T22:30:16.605Z,18.07
2018-11-27T22:32:46.896Z,18.13
2018-11-27T22:35:15.754Z,19.27
2018-11-27T22:37:44.240Z,17.80
2018-11-27T22:40:13.808Z,18.30
2018-11-27T22:42:42.515Z,19.50
2018-11-27T22:45:13.227Z,17.67
2018-11-27T22:47:41.712Z,20.30
2018-11-27T22:50:12.856Z,18.93
2018-11-27T22:52:41.409Z,17.43
2018-11-27T22:55:10.342Z,19.80
2018-11-27T22:57:39.346Z,19.13
2018-11-27T23:00:18.320Z,17.20
2018-11-27T23:02:46.942Z,17.60
2018-11-27T23:05:15.574Z,18.90
2018-11-27T23:07:44.752Z,18.57
2018-11-27T23:10:44.861Z,20.33
2018-11-27T23:13:13.370Z,19.40
2018-11-27T23:15:41.820Z,19.47
2018-11-27T23:18:10.352Z,18.47
2018-11-27T23:20:38.848Z,19.00
2018-11-27T23:23:07.365Z,20.63
2018-11-27T23:25:35.808Z,18.90
2018-11-27T23:28:04.375Z,20.10
2018-11-27T23:30:32.849Z,20.63
2018-11-27T23:33:01.351Z,20.50
2018-11-27T23:35:29.772Z,20.40
2018-11-27T23:37:58.228Z,20.90
2018-11-27T23:40:26.708Z,22.10
2018-11-27T23:42:55.415Z,22.00
2018-11-27T23:45:24.354Z,22.37
2018-11-27T23:47:52.838Z,22.90
2018-11-27T23:50:22.111Z,23.27
2018-11-27T23:52:50.611Z,22.83
2018-11-27T23:55:20.060Z,22.90
2018-11-27T23:57:48.644Z,21.60
